sensor_id;sensor_type;location;lat;lon;timestamp;P1;durP1;ratioP1;P2;durP2;ratioP2
8462;SDS011;4268;52.506;13.462;2022-12-18T00:02:00;36.40;;;20.20;;
8462;SDS011;4268;52.506;13.462;2022-12-18T00:04:26;32.87;;;18.70;;
8462;SDS011;4268;52.506;13.462;2022-12-18T00:06:51;30.67;;;18.30;;
8462;SDS011;4268;52.506;13.462;2022-12-18T00:09:17;31.03;;;18.17;;
8462;SDS011;4268;52.506;13.462;2022-12-18T00:11:43;28.73;;;17.63;;
8462;SDS011;4268;52.506;13.462;2022-12-18T00:14:08;29.37;;;17.87;;
8462;SDS011;4268;52.506;13.462;2022-12-18T00:16:36;29.60;;;17.73;;
8462;SDS011;4268;52.506;13.462;2022-12-18T00:19:02;34.47;;;19.63;;
8462;SDS011;4268;52.506;13.462;2022-12-18T00:21:29;31.87;;;18.90;;
8462;SDS011;4268;52.506;13.462;2022-12-18T00:23:56;29.57;;;16.80;;
8462;SDS011;4268;52.506;13.462;2022-12-18T00:26:23;32.20;;;19.43;;
8462;SDS011;4268;52.506;13.462;2022-12-18T00:28:50;33.60;;;19.33;;
8462;SDS011;4268;52.506;13.462;2022-12-18T00:31:17;29.87;;;18.97;;
8462;SDS011;4268;52.506;13.462;2022-12-18T00:33:48;33.80;;;18.70;;
8462;SDS011;4268;52.506;13.462;2022-12-18T00:36:15;29.43;;;18.53;;
8462;SDS011;4268;52.506;13.462;2022-12-18T00:38:43;31.57;;;18.43;;
8462;SDS011;4268;52.506;13.462;2022-12-18T00:41:09;32.83;;;17.60;;
8462;SDS011;4268;52.506;13.462;2022-12-18T00:43:36;30.17;;;16.50;;
8462;SDS011;4268;52.506;13.462;2022-12-18T00:46:03;29.73;;;17.30;;
8462;SDS011;4268;52.506;13.462;2022-12-18T00:48:29;28.23;;;16.67;;
8462;SDS011;4268;52.506;13.462;2022-12-18T00:50:54;29.47;;;16.77;;
8462;SDS011;4268;52.506;13.462;2022-12-18T00:53:20;31.27;;;17.87;;
8462;SDS011;4268;52.506;13.462;2022-12-18T00:55:45;31.67;;;16.97;;
8462;SDS011;4268;52.506;13.462;2022-12-18T00:58:11;30.77;;;18.37;;
8462;SDS011;4268;52.506;13.462;2022-12-18T01:00:38;32.90;;;18.80;;
8462;SDS011;4268;52.506;13.462;2022-12-18T01:03:04;29.10;;;17.07;;
8462;SDS011;4268;52.506;13.462;2022-12-18T01:05:30;33.10;;;17.77;;
8462;SDS011;4268;52.506;13.462;2022-12-18T01:07:56;31.17;;;17.87;;
8462;SDS011;4268;52.506;13.462;2022-12-18T01:10:22;29.03;;;17.70;;
8462;SDS011;4268;52.506;13.462;2022-12-18T01:12:48;32.10;;;18.13;;
8462;SDS011;4268;52.506;13.462;2022-12-18T01:15:15;34.67;;;19.30;;
8462;SDS011;4268;52.506;13.462;2022-12-18T01:17:40;37.47;;;19.13;;
8462;SDS011;4268;52.506;13.462;2022-12-18T01:20:07;33.43;;;18.43;;
8462;SDS011;4268;52.506;13.462;2022-12-18T01:22:34;33.07;;;17.33;;
8462;SDS011;4268;52.506;13.462;2022-12-18T01:24:59;33.43;;;19.63;;
8462;SDS011;4268;52.506;13.462;2022-12-18T01:27:25;32.50;;;18.43;;
8462;SDS011;4268;52.506;13.462;2022-12-18T01:29:50;30.13;;;17.43;;
8462;SDS011;4268;52.506;13.462;2022-12-18T01:32:16;33.30;;;17.90;;
8462;SDS011;4268;52.506;13.462;2022-12-18T01:34:41;30.00;;;18.53;;
8462;SDS011;4268;52.506;13.462;2022-12-18T01:37:08;31.50;;;18.77;;
8462;SDS011;4268;52.506;13.462;2022-12-18T01:39:33;37.17;;;20.33;;
8462;SDS011;4268;52.506;13.462;2022-12-18T01:42:00;32.73;;;18.77;;
8462;SDS011;4268;52.506;13.462;2022-12-18T01:53:15;45.90;;;23.43;;
8462;SDS011;4268;52.506;13.462;2022-12-18T01:55:48;44.40;;;23.53;;
8462;SDS011;4268;52.506;13.462;2022-12-18T01:58:16;41.20;;;23.47;;
8462;SDS011;4268;52.506;13.462;2022-12-18T02:00:44;45.30;;;22.87;;
8462;SDS011;4268;52.506;13.462;2022-12-18T02:03:09;52.03;;;25.30;;
8462;SDS011;4268;52.506;13.462;2022-12-18T02:05:49;51.07;;;25.13;;
8462;SDS011;4268;52.506;13.462;2022-12-18T02:08:41;49.40;;;24.87;;
8462;SDS011;4268;52.506;13.462;2022-12-18T02:11:49;51.23;;;25.23;;
8462;SDS011;4268;52.506;13.462;2022-12-18T02:14:34;50.93;;;25.53;;
8462;SDS011;4268;52.506;13.462;2022-12-18T02:17:16;52.07;;;24.70;;
8462;SDS011;4268;52.506;13.462;2022-12-18T02:20:06;59.27;;;26.77;;
8462;SDS011;4268;52.506;13.462;2022-12-18T02:25:40;54.43;;;25.67;;
8462;SDS011;4268;52.506;13.462;2022-12-18T02:28:30;52.80;;;25.47;;
8462;SDS011;4268;52.506;13.462;2022-12-18T02:30:59;57.83;;;28.30;;
8462;SDS011;4268;52.506;13.462;2022-12-18T02:33:27;60.23;;;26.73;;
8462;SDS011;4268;52.506;13.462;2022-12-18T02:35:54;60.27;;;29.07;;
8462;SDS011;4268;52.506;13.462;2022-12-18T02:38:21;60.47;;;28.20;;
8462;SDS011;4268;52.506;13.462;2022-12-18T02:40:47;58.50;;;28.07;;
8462;SDS011;4268;52.506;13.462;2022-12-18T02:43:14;54.10;;;26.70;;
8462;SDS011;4268;52.506;13.462;2022-12-18T02:45:51;56.90;;;26.10;;
8462;SDS011;4268;52.506;13.462;2022-12-18T02:48:20;58.43;;;28.23;;
8462;SDS011;4268;52.506;13.462;2022-12-18T02:50:52;50.73;;;26.33;;
8462;SDS011;4268;52.506;13.462;2022-12-18T02:53:31;46.20;;;24.97;;
8462;SDS011;4268;52.506;13.462;2022-12-18T02:56:06;51.50;;;25.57;;
8462;SDS011;4268;52.506;13.462;2022-12-18T02:58:57;55.50;;;25.23;;
8462;SDS011;4268;52.506;13.462;2022-12-18T03:04:19;47.20;;;23.03;;
8462;SDS011;4268;52.506;13.462;2022-12-18T03:06:47;45.50;;;22.90;;
8462;SDS011;4268;52.506;13.462;2022-12-18T03:09:19;44.70;;;23.10;;
8462;SDS011;4268;52.506;13.462;2022-12-18T03:11:52;43.00;;;21.50;;
8462;SDS011;4268;52.506;13.462;2022-12-18T03:14:45;44.13;;;22.43;;
8462;SDS011;4268;52.506;13.462;2022-12-18T03:17:20;43.70;;;22.77;;
8462;SDS011;4268;52.506;13.462;2022-12-18T03:19:49;41.13;;;21.47;;
8462;SDS011;4268;52.506;13.462;2022-12-18T03:22:18;41.30;;;21.93;;
8462;SDS011;4268;52.506;13.462;2022-12-18T03:24:45;43.83;;;21.70;;
8462;SDS011;4268;52.506;13.462;2022-12-18T03:27:13;34.60;;;20.13;;
8462;SDS011;4268;52.506;13.462;2022-12-18T03:29:46;30.93;;;18.03;;
8462;SDS011;4268;52.506;13.462;2022-12-18T03:32:28;40.73;;;20.30;;
8462;SDS011;4268;52.506;13.462;2022-12-18T03:34:57;36.97;;;19.33;;
8462;SDS011;4268;52.506;13.462;2022-12-18T03:37:27;39.40;;;19.37;;
8462;SDS011;4268;52.506;13.462;2022-12-18T03:39:55;35.13;;;20.37;;
8462;SDS011;4268;52.506;13.462;2022-12-18T03:42:28;39.67;;;20.50;;
8462;SDS011;4268;52.506;13.462;2022-12-18T03:47:49;36.93;;;20.53;;
8462;SDS011;4268;52.506;13.462;2022-12-18T03:50:32;34.10;;;19.53;;
8462;SDS011;4268;52.506;13.462;2022-12-18T03:53:09;36.67;;;19.43;;
8462;SDS011;4268;52.506;13.462;2022-12-18T03:55:56;34.77;;;18.93;;
8462;SDS011;4268;52.506;13.462;2022-12-18T03:58:24;32.53;;;19.00;;
8462;SDS011;4268;52.506;13.462;2022-12-18T04:00:52;38.07;;;19.53;;
8462;SDS011;4268;52.506;13.462;2022-12-18T04:03:20;39.23;;;20.60;;
8462;SDS011;4268;52.506;13.462;2022-12-18T04:05:48;40.97;;;20.13;;
8462;SDS011;4268;52.506;13.462;2022-12-18T04:08:16;31.03;;;18.00;;
8462;SDS011;4268;52.506;13.462;2022-12-18T04:10:42;31.20;;;18.77;;
8462;SDS011;4268;52.506;13.462;2022-12-18T04:13:08;33.17;;;19.63;;
8462;SDS011;4268;52.506;13.462;2022-12-18T04:15:34;34.27;;;19.00;;
8462;SDS011;4268;52.506;13.462;2022-12-18T04:18:01;30.57;;;18.20;;
8462;SDS011;4268;52.506;13.462;2022-12-18T04:20:26;34.77;;;18.83;;
8462;SDS011;4268;52.506;13.462;2022-12-18T04:22:52;30.87;;;18.07;;
8462;SDS011;4268;52.506;13.462;2022-12-18T04:25:17;33.80;;;19.43;;
8462;SDS011;4268;52.506;13.462;2022-12-18T04:27:43;31.93;;;18.07;;
8462;SDS011;4268;52.506;13.462;2022-12-18T04:30:09;33.17;;;18.17;;
8462;SDS011;4268;52.506;13.462;2022-12-18T04:32:35;33.73;;;17.90;;
8462;SDS011;4268;52.506;13.462;2022-12-18T04:35:01;29.50;;;17.63;;
8462;SDS011;4268;52.506;13.462;2022-12-18T04:37:27;31.93;;;18.63;;
8462;SDS011;4268;52.506;13.462;2022-12-18T04:39:52;34.80;;;18.83;;
8462;SDS011;4268;52.506;13.462;2022-12-18T04:42:18;31.87;;;18.03;;
8462;SDS011;4268;52.506;13.462;2022-12-18T04:44:43;32.70;;;18.57;;
8462;SDS011;4268;52.506;13.462;2022-12-18T04:47:09;29.13;;;17.00;;
8462;SDS011;4268;52.506;13.462;2022-12-18T04:49:35;34.80;;;17.20;;
8462;SDS011;4268;52.506;13.462;2022-12-18T04:52:00;31.33;;;17.30;;
8462;SDS011;4268;52.506;13.462;2022-12-18T04:54:26;29.67;;;17.83;;
8462;SDS011;4268;52.506;13.462;2022-12-18T04:56:51;30.80;;;17.13;;
8462;SDS011;4268;52.506;13.462;2022-12-18T04:59:17;32.23;;;17.23;;
8462;SDS011;4268;52.506;13.462;2022-12-18T05:01:42;33.00;;;18.53;;
8462;SDS011;4268;52.506;13.462;2022-12-18T05:04:08;32.90;;;17.80;;
8462;SDS011;4268;52.506;13.462;2022-12-18T05:06:33;29.73;;;18.13;;
8462;SDS011;4268;52.506;13.462;2022-12-18T05:08:59;29.97;;;17.00;;
8462;SDS011;4268;52.506;13.462;2022-12-18T05:11:24;35.23;;;17.93;;
8462;SDS011;4268;52.506;13.462;2022-12-18T05:13:50;38.93;;;19.47;;
8462;SDS011;4268;52.506;13.462;2022-12-18T05:16:15;34.20;;;18.03;;
8462;SDS011;4268;52.506;13.462;2022-12-18T05:18:41;34.83;;;18.73;;
8462;SDS011;4268;52.506;13.462;2022-12-18T05:21:07;36.03;;;19.30;;
8462;SDS011;4268;52.506;13.462;2022-12-18T05:23:32;37.80;;;18.60;;
8462;SDS011;4268;52.506;13.462;2022-12-18T05:26:02;37.77;;;20.10;;
8462;SDS011;4268;52.506;13.462;2022-12-18T05:28:30;41.13;;;21.00;;
8462;SDS011;4268;52.506;13.462;2022-12-18T05:30:58;37.03;;;20.30;;
8462;SDS011;4268;52.506;13.462;2022-12-18T05:33:26;42.77;;;20.97;;
8462;SDS011;4268;52.506;13.462;2022-12-18T05:35:54;36.90;;;20.63;;
8462;SDS011;4268;52.506;13.462;2022-12-18T05:38:21;38.77;;;19.67;;
8462;SDS011;4268;52.506;13.462;2022-12-18T05:40:48;40.53;;;20.33;;
8462;SDS011;4268;52.506;13.462;2022-12-18T05:43:14;41.27;;;20.30;;
8462;SDS011;4268;52.506;13.462;2022-12-18T05:45:40;44.40;;;21.40;;
8462;SDS011;4268;52.506;13.462;2022-12-18T05:48:06;44.77;;;22.90;;
8462;SDS011;4268;52.506;13.462;2022-12-18T05:50:34;46.83;;;23.60;;
8462;SDS011;4268;52.506;13.462;2022-12-18T05:53:00;47.00;;;23.03;;
8462;SDS011;4268;52.506;13.462;2022-12-18T05:55:27;45.43;;;23.23;;
8462;SDS011;4268;52.506;13.462;2022-12-18T05:57:52;41.63;;;22.37;;
8462;SDS011;4268;52.506;13.462;2022-12-18T06:00:17;42.87;;;21.93;;
8462;SDS011;4268;52.506;13.462;2022-12-18T06:02:46;42.70;;;21.30;;
8462;SDS011;4268;52.506;13.462;2022-12-18T06:05:12;47.07;;;23.37;;
8462;SDS011;4268;52.506;13.462;2022-12-18T06:07:37;46.90;;;22.83;;
8462;SDS011;4268;52.506;13.462;2022-12-18T06:10:03;45.43;;;23.27;;
8462;SDS011;4268;52.506;13.462;2022-12-18T06:12:29;41.97;;;21.80;;
8462;SDS011;4268;52.506;13.462;2022-12-18T06:14:54;48.53;;;23.50;;
8462;SDS011;4268;52.506;13.462;2022-12-18T06:17:20;46.83;;;22.87;;
8462;SDS011;4268;52.506;13.462;2022-12-18T06:19:45;47.07;;;23.80;;
8462;SDS011;4268;52.506;13.462;2022-12-18T06:22:11;45.53;;;23.50;;
8462;SDS011;4268;52.506;13.462;2022-12-18T06:24:36;41.03;;;22.00;;
8462;SDS011;4268;52.506;13.462;2022-12-18T06:27:02;40.27;;;21.77;;
8462;SDS011;4268;52.506;13.462;2022-12-18T06:29:27;41.20;;;21.90;;
8462;SDS011;4268;52.506;13.462;2022-12-18T06:31:53;45.20;;;22.20;;
8462;SDS011;4268;52.506;13.462;2022-12-18T06:34:18;43.70;;;22.60;;
8462;SDS011;4268;52.506;13.462;2022-12-18T06:36:43;41.90;;;22.07;;
8462;SDS011;4268;52.506;13.462;2022-12-18T06:39:09;39.97;;;21.33;;
8462;SDS011;4268;52.506;13.462;2022-12-18T06:41:34;43.87;;;22.07;;
8462;SDS011;4268;52.506;13.462;2022-12-18T06:44:00;45.40;;;22.20;;
8462;SDS011;4268;52.506;13.462;2022-12-18T06:46:27;42.83;;;22.10;;
8462;SDS011;4268;52.506;13.462;2022-12-18T06:48:52;44.90;;;21.37;;
8462;SDS011;4268;52.506;13.462;2022-12-18T06:51:19;38.93;;;21.07;;
8462;SDS011;4268;52.506;13.462;2022-12-18T06:53:46;41.70;;;20.97;;
8462;SDS011;4268;52.506;13.462;2022-12-18T06:56:12;35.53;;;20.37;;
8462;SDS011;4268;52.506;13.462;2022-12-18T06:58:38;41.43;;;21.50;;
8462;SDS011;4268;52.506;13.462;2022-12-18T07:01:04;41.63;;;21.37;;
8462;SDS011;4268;52.506;13.462;2022-12-18T07:03:31;35.97;;;21.10;;
8462;SDS011;4268;52.506;13.462;2022-12-18T07:05:57;40.07;;;20.13;;
8462;SDS011;4268;52.506;13.462;2022-12-18T07:08:22;36.87;;;21.60;;
8462;SDS011;4268;52.506;13.462;2022-12-18T07:10:48;38.33;;;19.67;;
8462;SDS011;4268;52.506;13.462;2022-12-18T07:13:16;37.50;;;19.97;;
8462;SDS011;4268;52.506;13.462;2022-12-18T07:15:42;37.67;;;20.70;;
8462;SDS011;4268;52.506;13.462;2022-12-18T07:18:08;41.03;;;21.07;;
8462;SDS011;4268;52.506;13.462;2022-12-18T07:20:34;40.97;;;21.63;;
8462;SDS011;4268;52.506;13.462;2022-12-18T07:23:01;42.70;;;21.47;;
8462;SDS011;4268;52.506;13.462;2022-12-18T07:25:27;38.77;;;21.17;;
8462;SDS011;4268;52.506;13.462;2022-12-18T07:27:53;42.73;;;21.83;;
8462;SDS011;4268;52.506;13.462;2022-12-18T07:30:19;41.10;;;21.73;;
8462;SDS011;4268;52.506;13.462;2022-12-18T07:32:44;39.57;;;21.33;;
8462;SDS011;4268;52.506;13.462;2022-12-18T07:35:10;37.77;;;21.00;;
8462;SDS011;4268;52.506;13.462;2022-12-18T07:37:35;37.80;;;21.23;;
8462;SDS011;4268;52.506;13.462;2022-12-18T07:40:01;37.37;;;20.17;;
8462;SDS011;4268;52.506;13.462;2022-12-18T07:42:26;37.17;;;20.17;;
8462;SDS011;4268;52.506;13.462;2022-12-18T07:44:55;37.23;;;20.10;;
8462;SDS011;4268;52.506;13.462;2022-12-18T07:47:21;42.47;;;21.80;;
8462;SDS011;4268;52.506;13.462;2022-12-18T07:49:46;39.73;;;22.10;;
8462;SDS011;4268;52.506;13.462;2022-12-18T07:52:12;39.50;;;20.27;;
8462;SDS011;4268;52.506;13.462;2022-12-18T07:54:37;36.27;;;21.37;;
8462;SDS011;4268;52.506;13.462;2022-12-18T07:57:03;36.93;;;21.10;;
8462;SDS011;4268;52.506;13.462;2022-12-18T07:59:29;35.03;;;19.10;;
8462;SDS011;4268;52.506;13.462;2022-12-18T08:01:54;33.30;;;19.67;;
8462;SDS011;4268;52.506;13.462;2022-12-18T08:04:20;33.27;;;19.70;;
8462;SDS011;4268;52.506;13.462;2022-12-18T08:06:45;32.60;;;18.93;;
8462;SDS011;4268;52.506;13.462;2022-12-18T08:09:11;35.03;;;19.43;;
8462;SDS011;4268;52.506;13.462;2022-12-18T08:11:36;32.93;;;18.63;;
8462;SDS011;4268;52.506;13.462;2022-12-18T08:14:02;33.00;;;19.63;;
8462;SDS011;4268;52.506;13.462;2022-12-18T08:16:27;33.97;;;20.43;;
8462;SDS011;4268;52.506;13.462;2022-12-18T08:18:53;31.23;;;17.73;;
8462;SDS011;4268;52.506;13.462;2022-12-18T08:21:20;33.27;;;19.23;;
8462;SDS011;4268;52.506;13.462;2022-12-18T08:23:51;31.77;;;19.17;;
8462;SDS011;4268;52.506;13.462;2022-12-18T08:26:18;31.27;;;18.33;;
8462;SDS011;4268;52.506;13.462;2022-12-18T08:28:44;27.87;;;17.37;;
8462;SDS011;4268;52.506;13.462;2022-12-18T08:31:10;28.47;;;18.50;;
8462;SDS011;4268;52.506;13.462;2022-12-18T08:33:36;29.30;;;18.23;;
8462;SDS011;4268;52.506;13.462;2022-12-18T08:36:03;30.77;;;18.17;;
8462;SDS011;4268;52.506;13.462;2022-12-18T08:38:29;30.33;;;18.93;;
8462;SDS011;4268;52.506;13.462;2022-12-18T08:40:59;31.53;;;18.53;;
8462;SDS011;4268;52.506;13.462;2022-12-18T08:43:25;34.07;;;19.60;;
8462;SDS011;4268;52.506;13.462;2022-12-18T08:46:10;30.07;;;17.97;;
8462;SDS011;4268;52.506;13.462;2022-12-18T08:48:35;28.87;;;18.30;;
8462;SDS011;4268;52.506;13.462;2022-12-18T08:51:01;32.03;;;18.53;;
8462;SDS011;4268;52.506;13.462;2022-12-18T08:53:26;32.60;;;19.47;;
8462;SDS011;4268;52.506;13.462;2022-12-18T08:55:52;33.80;;;21.00;;
8462;SDS011;4268;52.506;13.462;2022-12-18T08:58:18;32.43;;;21.83;;
8462;SDS011;4268;52.506;13.462;2022-12-18T09:00:44;29.30;;;18.20;;
8462;SDS011;4268;52.506;13.462;2022-12-18T09:03:13;28.73;;;19.00;;
8462;SDS011;4268;52.506;13.462;2022-12-18T09:05:40;31.67;;;19.57;;
8462;SDS011;4268;52.506;13.462;2022-12-18T09:08:06;33.90;;;20.07;;
8462;SDS011;4268;52.506;13.462;2022-12-18T09:10:31;28.80;;;18.27;;
8462;SDS011;4268;52.506;13.462;2022-12-18T09:12:57;33.80;;;19.77;;
8462;SDS011;4268;52.506;13.462;2022-12-18T09:15:23;28.17;;;18.33;;
8462;SDS011;4268;52.506;13.462;2022-12-18T09:17:48;33.00;;;19.33;;
8462;SDS011;4268;52.506;13.462;2022-12-18T09:20:14;35.37;;;20.17;;
8462;SDS011;4268;52.506;13.462;2022-12-18T09:22:41;33.77;;;20.00;;
8462;SDS011;4268;52.506;13.462;2022-12-18T09:25:07;32.07;;;18.97;;
8462;SDS011;4268;52.506;13.462;2022-12-18T09:27:33;31.27;;;19.57;;
8462;SDS011;4268;52.506;13.462;2022-12-18T09:29:58;33.37;;;19.43;;
8462;SDS011;4268;52.506;13.462;2022-12-18T09:32:24;33.17;;;19.97;;
8462;SDS011;4268;52.506;13.462;2022-12-18T09:34:50;33.60;;;21.63;;
8462;SDS011;4268;52.506;13.462;2022-12-18T09:37:15;34.13;;;20.03;;
8462;SDS011;4268;52.506;13.462;2022-12-18T09:39:41;32.80;;;19.20;;
8462;SDS011;4268;52.506;13.462;2022-12-18T09:42:09;31.27;;;18.77;;
8462;SDS011;4268;52.506;13.462;2022-12-18T09:44:43;33.80;;;20.07;;
8462;SDS011;4268;52.506;13.462;2022-12-18T09:47:17;32.97;;;18.77;;
8462;SDS011;4268;52.506;13.462;2022-12-18T09:50:04;33.70;;;18.93;;
8462;SDS011;4268;52.506;13.462;2022-12-18T09:52:44;36.80;;;20.03;;
8462;SDS011;4268;52.506;13.462;2022-12-18T09:55:18;35.80;;;20.47;;
8462;SDS011;4268;52.506;13.462;2022-12-18T09:57:57;34.87;;;20.20;;
8462;SDS011;4268;52.506;13.462;2022-12-18T10:00:27;36.37;;;20.10;;
8462;SDS011;4268;52.506;13.462;2022-12-18T10:02:59;33.17;;;19.60;;
8462;SDS011;4268;52.506;13.462;2022-12-18T10:05:34;31.60;;;18.77;;
8462;SDS011;4268;52.506;13.462;2022-12-18T10:11:01;32.80;;;19.30;;
8462;SDS011;4268;52.506;13.462;2022-12-18T10:13:42;35.00;;;19.90;;
8462;SDS011;4268;52.506;13.462;2022-12-18T10:16:22;38.33;;;20.03;;
8462;SDS011;4268;52.506;13.462;2022-12-18T10:21:52;34.27;;;19.77;;
8462;SDS011;4268;52.506;13.462;2022-12-18T10:26:53;33.70;;;20.90;;
8462;SDS011;4268;52.506;13.462;2022-12-18T10:29:24;35.90;;;20.70;;
8462;SDS011;4268;52.506;13.462;2022-12-18T10:31:50;36.83;;;20.70;;
8462;SDS011;4268;52.506;13.462;2022-12-18T10:34:15;34.70;;;20.30;;
8462;SDS011;4268;52.506;13.462;2022-12-18T10:36:42;37.03;;;21.47;;
8462;SDS011;4268;52.506;13.462;2022-12-18T10:39:14;35.47;;;21.50;;
8462;SDS011;4268;52.506;13.462;2022-12-18T10:41:41;39.37;;;24.53;;
8462;SDS011;4268;52.506;13.462;2022-12-18T10:46:37;35.97;;;21.77;;
8462;SDS011;4268;52.506;13.462;2022-12-18T10:49:03;35.47;;;21.70;;
8462;SDS011;4268;52.506;13.462;2022-12-18T10:51:30;36.97;;;20.97;;
8462;SDS011;4268;52.506;13.462;2022-12-18T10:54:02;36.83;;;21.93;;
8462;SDS011;4268;52.506;13.462;2022-12-18T10:56:39;35.20;;;21.93;;
8462;SDS011;4268;52.506;13.462;2022-12-18T10:59:08;37.47;;;22.10;;
8462;SDS011;4268;52.506;13.462;2022-12-18T11:04:24;33.90;;;20.27;;
8462;SDS011;4268;52.506;13.462;2022-12-18T11:06:58;34.17;;;20.43;;
8462;SDS011;4268;52.506;13.462;2022-12-18T11:09:29;36.57;;;21.57;;
8462;SDS011;4268;52.506;13.462;2022-12-18T11:11:58;36.17;;;20.80;;
8462;SDS011;4268;52.506;13.462;2022-12-18T11:14:30;33.30;;;21.27;;
8462;SDS011;4268;52.506;13.462;2022-12-18T11:16:58;31.33;;;20.50;;
8462;SDS011;4268;52.506;13.462;2022-12-18T11:19:28;32.30;;;20.70;;
8462;SDS011;4268;52.506;13.462;2022-12-18T11:21:56;35.60;;;21.47;;
8462;SDS011;4268;52.506;13.462;2022-12-18T11:24:32;33.40;;;20.90;;
8462;SDS011;4268;52.506;13.462;2022-12-18T11:27:03;36.43;;;21.27;;
8462;SDS011;4268;52.506;13.462;2022-12-18T11:29:32;33.23;;;20.33;;
8462;SDS011;4268;52.506;13.462;2022-12-18T11:34:40;32.23;;;20.93;;
8462;SDS011;4268;52.506;13.462;2022-12-18T11:37:09;29.67;;;18.93;;
8462;SDS011;4268;52.506;13.462;2022-12-18T11:39:39;30.80;;;21.17;;
8462;SDS011;4268;52.506;13.462;2022-12-18T11:42:12;29.50;;;17.70;;
8462;SDS011;4268;52.506;13.462;2022-12-18T11:44:48;29.10;;;18.20;;
8462;SDS011;4268;52.506;13.462;2022-12-18T11:50:28;25.70;;;17.10;;
8462;SDS011;4268;52.506;13.462;2022-12-18T11:53:13;28.47;;;18.37;;
8462;SDS011;4268;52.506;13.462;2022-12-18T11:55:50;30.20;;;18.83;;
8462;SDS011;4268;52.506;13.462;2022-12-18T12:01:40;27.93;;;18.33;;
8462;SDS011;4268;52.506;13.462;2022-12-18T12:04:38;31.67;;;19.43;;
8462;SDS011;4268;52.506;13.462;2022-12-18T12:09:54;29.77;;;19.13;;
8462;SDS011;4268;52.506;13.462;2022-12-18T12:12:36;29.57;;;18.47;;
8462;SDS011;4268;52.506;13.462;2022-12-18T12:15:24;29.93;;;19.87;;
8462;SDS011;4268;52.506;13.462;2022-12-18T12:21:21;29.50;;;20.53;;
8462;SDS011;4268;52.506;13.462;2022-12-18T12:24:20;31.77;;;20.10;;
8462;SDS011;4268;52.506;13.462;2022-12-18T12:30:02;32.43;;;20.60;;
8462;SDS011;4268;52.506;13.462;2022-12-18T12:32:42;30.30;;;20.70;;
8462;SDS011;4268;52.506;13.462;2022-12-18T12:38:00;29.80;;;18.30;;
8462;SDS011;4268;52.506;13.462;2022-12-18T12:40:33;29.37;;;19.47;;
8462;SDS011;4268;52.506;13.462;2022-12-18T12:43:02;26.43;;;18.03;;
8462;SDS011;4268;52.506;13.462;2022-12-18T12:45:44;25.90;;;18.10;;
8462;SDS011;4268;52.506;13.462;2022-12-18T12:48:31;27.53;;;19.03;;
8462;SDS011;4268;52.506;13.462;2022-12-18T12:50:58;26.97;;;17.93;;
8462;SDS011;4268;52.506;13.462;2022-12-18T12:53:32;27.60;;;18.07;;
8462;SDS011;4268;52.506;13.462;2022-12-18T12:56:02;27.63;;;18.47;;
8462;SDS011;4268;52.506;13.462;2022-12-18T12:58:34;27.17;;;18.73;;
8462;SDS011;4268;52.506;13.462;2022-12-18T13:04:08;26.57;;;18.07;;
8462;SDS011;4268;52.506;13.462;2022-12-18T13:09:34;26.43;;;17.50;;
8462;SDS011;4268;52.506;13.462;2022-12-18T13:15:36;28.43;;;18.23;;
8462;SDS011;4268;52.506;13.462;2022-12-18T13:20:35;29.50;;;19.30;;
8462;SDS011;4268;52.506;13.462;2022-12-18T13:25:49;24.63;;;17.47;;
8462;SDS011;4268;52.506;13.462;2022-12-18T13:34:19;30.63;;;18.27;;
8462;SDS011;4268;52.506;13.462;2022-12-18T13:36:47;27.67;;;18.43;;
8462;SDS011;4268;52.506;13.462;2022-12-18T13:39:21;30.10;;;18.67;;
8462;SDS011;4268;52.506;13.462;2022-12-18T13:42:31;28.40;;;18.47;;
8462;SDS011;4268;52.506;13.462;2022-12-18T13:44:58;31.27;;;19.13;;
8462;SDS011;4268;52.506;13.462;2022-12-18T13:50:22;27.10;;;19.43;;
8462;SDS011;4268;52.506;13.462;2022-12-18T13:52:49;26.90;;;18.70;;
8462;SDS011;4268;52.506;13.462;2022-12-18T13:55:17;28.07;;;19.27;;
8462;SDS011;4268;52.506;13.462;2022-12-18T13:57:44;25.57;;;19.13;;
8462;SDS011;4268;52.506;13.462;2022-12-18T14:00:23;26.53;;;18.53;;
8462;SDS011;4268;52.506;13.462;2022-12-18T14:02:53;27.53;;;19.00;;
8462;SDS011;4268;52.506;13.462;2022-12-18T14:07:58;27.83;;;19.80;;
8462;SDS011;4268;52.506;13.462;2022-12-18T14:10:30;30.53;;;19.50;;
8462;SDS011;4268;52.506;13.462;2022-12-18T14:12:57;28.73;;;20.93;;
8462;SDS011;4268;52.506;13.462;2022-12-18T14:15:33;33.10;;;21.63;;
8462;SDS011;4268;52.506;13.462;2022-12-18T14:20:51;28.33;;;19.80;;
8462;SDS011;4268;52.506;13.462;2022-12-18T14:23:26;26.07;;;19.20;;
8462;SDS011;4268;52.506;13.462;2022-12-18T14:26:03;27.70;;;19.57;;
8462;SDS011;4268;52.506;13.462;2022-12-18T14:28:47;28.63;;;20.10;;
8462;SDS011;4268;52.506;13.462;2022-12-18T14:31:20;27.40;;;19.17;;
8462;SDS011;4268;52.506;13.462;2022-12-18T14:33:53;25.47;;;18.40;;
8462;SDS011;4268;52.506;13.462;2022-12-18T14:36:20;29.33;;;20.53;;
8462;SDS011;4268;52.506;13.462;2022-12-18T14:38:52;24.40;;;17.80;;
8462;SDS011;4268;52.506;13.462;2022-12-18T14:41:22;25.97;;;17.23;;
8462;SDS011;4268;52.506;13.462;2022-12-18T14:43:49;21.47;;;15.70;;
8462;SDS011;4268;52.506;13.462;2022-12-18T14:49:00;20.63;;;16.03;;
8462;SDS011;4268;52.506;13.462;2022-12-18T14:51:47;23.60;;;17.17;;
8462;SDS011;4268;52.506;13.462;2022-12-18T14:54:20;21.30;;;17.20;;
8462;SDS011;4268;52.506;13.462;2022-12-18T14:56:47;22.97;;;18.20;;
8462;SDS011;4268;52.506;13.462;2022-12-18T14:59:16;22.10;;;17.53;;
8462;SDS011;4268;52.506;13.462;2022-12-18T15:04:38;24.50;;;19.37;;
8462;SDS011;4268;52.506;13.462;2022-12-18T15:07:13;23.17;;;18.20;;
8462;SDS011;4268;52.506;13.462;2022-12-18T15:09:42;26.80;;;19.23;;
8462;SDS011;4268;52.506;13.462;2022-12-18T15:12:35;24.53;;;18.97;;
8462;SDS011;4268;52.506;13.462;2022-12-18T15:15:02;25.90;;;19.93;;
8462;SDS011;4268;52.506;13.462;2022-12-18T15:17:29;25.23;;;19.37;;
8462;SDS011;4268;52.506;13.462;2022-12-18T15:20:00;25.77;;;19.80;;
8462;SDS011;4268;52.506;13.462;2022-12-18T15:22:34;27.57;;;19.53;;
8462;SDS011;4268;52.506;13.462;2022-12-18T15:25:01;25.90;;;19.53;;
8462;SDS011;4268;52.506;13.462;2022-12-18T15:27:30;26.83;;;21.00;;
8462;SDS011;4268;52.506;13.462;2022-12-18T15:29:59;27.80;;;20.87;;
8462;SDS011;4268;52.506;13.462;2022-12-18T15:32:37;24.27;;;17.30;;
8462;SDS011;4268;52.506;13.462;2022-12-18T15:37:41;19.40;;;15.40;;
8462;SDS011;4268;52.506;13.462;2022-12-18T15:40:08;22.33;;;16.73;;
8462;SDS011;4268;52.506;13.462;2022-12-18T15:42:39;26.53;;;17.20;;
8462;SDS011;4268;52.506;13.462;2022-12-18T15:45:23;21.20;;;18.10;;
8462;SDS011;4268;52.506;13.462;2022-12-18T15:47:49;23.60;;;18.70;;
8462;SDS011;4268;52.506;13.462;2022-12-18T15:50:14;24.00;;;19.23;;
8462;SDS011;4268;52.506;13.462;2022-12-18T15:52:43;23.13;;;16.93;;
8462;SDS011;4268;52.506;13.462;2022-12-18T15:55:11;22.67;;;17.20;;
8462;SDS011;4268;52.506;13.462;2022-12-18T15:57:57;22.60;;;17.47;;
8462;SDS011;4268;52.506;13.462;2022-12-18T16:00:23;22.63;;;17.53;;
8462;SDS011;4268;52.506;13.462;2022-12-18T16:02:49;23.50;;;18.03;;
8462;SDS011;4268;52.506;13.462;2022-12-18T16:05:15;24.77;;;18.43;;
8462;SDS011;4268;52.506;13.462;2022-12-18T16:07:41;22.03;;;17.60;;
8462;SDS011;4268;52.506;13.462;2022-12-18T16:10:07;23.60;;;18.63;;
8462;SDS011;4268;52.506;13.462;2022-12-18T16:12:33;25.07;;;18.80;;
8462;SDS011;4268;52.506;13.462;2022-12-18T16:14:59;23.90;;;18.87;;
8462;SDS011;4268;52.506;13.462;2022-12-18T16:17:25;23.50;;;17.93;;